Dover, Missouri
Current Conditions -  °F | °C
As of 8:55 AM on Monday 22 Dec 2014 (Local Time) from KRCM Reporting Station
Overcast Overcast  
Wind Chill: 35°   Ceiling: 1600
Heat Index: 41°   Visibility: 10mi
Dew Point: 37°   Wind: 9mph
Humidity: 87%   Direction: 140°SE
Pressure: 29.61"   Gusts: NA
Location:  39.19°N, 93.69°W
Report Text: KRCM 221455Z AUTO 14008KT 10SM BKN016 BKN023 OVC036 05/03 A2961 RMK AO2
Loading
Personal Weather Stations






























Interactive Weather Map New forecast layout! Learn more

10-Day Weather Forecast

Advertisements
Track Severe Weather on mobile